| time (UTC) | temp F | wind direction | speed knots | gust knots | rain 1hr in | rain 24hr in | rain mn in | humidity % | barometer mb |
| 20260508040005 | 59 | 90 | 0.0 | 2.6 | 0.00 | 0.00 | 0.00 | 86 | 1016.5 |
| 20260508030005 | 59 | 13 | 0.0 | 2.6 | 0.00 | 0.00 | 0.00 | 87 | 1016.2 |
| 20260508020007 | 58 | 90 | 0.0 | 0.0 | 0.00 | 0.00 | 0.00 | 89 | 1016.5 |
| 20260508010008 | 59 | 30 | 0.0 | 1.7 | 0.00 | 0.00 | 0.00 | 88 | 1016.6 |
| 20260508000007 | 57 | 90 | 0.0 | 0.0 | 0.00 | 0.00 | 0.00 | 92 | 1017.0 |
| 20260507220005 | 59 | 90 | 0.0 | 0.0 | 0.00 | 0.00 | 0.00 | 91 | 1017.4 |
| 20260507210005 | 60 | 90 | 0.0 | 0.0 | 0.00 | 0.00 | 0.00 | 91 | 1017.4 |
| 20260507200005 | 62 | 90 | 0.0 | 0.9 | 0.00 | 0.00 | 0.00 | 89 | 1017.5 |
| 20260507190006 | 63 | 135 | 0.0 | 2.6 | 0.00 | 0.00 | 0.00 | 87 | 1017.7 |
| 20260507180005 | 64 | 225 | 0.0 | 2.6 | 0.00 | 0.00 | 0.00 | 85 | 1017.3 |
| 20260507170007 | 64 | 195 | 0.9 | 6.1 | 0.00 | 0.00 | 0.00 | 83 | 1016.9 |
| 20260507160005 | 65 | 180 | 2.6 | 7.0 | 0.00 | 0.00 | 0.00 | 80 | 1016.7 |
| 20260507150006 | 67 | 180 | 2.6 | 10.4 | 0.00 | 0.00 | 0.00 | 74 | 1016.9 |
| 20260507140007 | 71 | 210 | 4.3 | 10.4 | 0.00 | 0.00 | 0.00 | 64 | 1017.3 |
| 20260507130005 | 72 | 225 | 4.3 | 14.8 | 0.00 | 0.00 | 0.00 | 58 | 1017.6 |
| 20260507120007 | 74 | 225 | 4.3 | 13.0 | 0.00 | 0.00 | 0.00 | 57 | 1017.8 |
| 20260507110008 | 74 | 192 | 5.2 | 13.0 | 0.00 | 0.00 | 0.00 | 57 | 1017.7 |
| 20260507100005 | 74 | 225 | 4.3 | 11.3 | 0.00 | 0.00 | 0.00 | 57 | 1017.4 |
| 20260507080005 | 71 | 225 | 2.6 | 7.8 | 0.00 | 0.00 | 0.00 | 65 | 1017.4 |
| 20260507070009 | 68 | 0 | 0.0 | 4.3 | 0.00 | 0.00 | 0.00 | 63 | 1017.5 |
| 20260507060005 | 66 | 90 | 0.0 | 0.0 | 0.00 | 0.00 | 0.00 | 58 | 1017.5 |